createdAt,value
2018-08-24T14:06:42.124Z,4.57
2018-08-24T14:09:10.702Z,4.97
2018-08-24T14:11:38.472Z,4.40
2018-08-24T14:14:05.651Z,4.40
2018-08-24T14:16:33.026Z,4.60
2018-08-24T14:19:00.264Z,5.97
2018-08-24T14:21:27.734Z,4.67
2018-08-24T14:23:55.059Z,4.90
2018-08-24T14:26:25.017Z,4.90
2018-08-24T14:28:52.228Z,4.13
2018-08-24T14:31:19.993Z,4.40
2018-08-24T14:33:47.254Z,6.10
2018-08-24T14:36:14.786Z,4.40
2018-08-24T14:38:41.981Z,4.40
2018-08-24T14:41:09.454Z,4.50
2018-08-24T14:43:36.964Z,5.47
2018-08-24T14:46:04.227Z,4.30
2018-08-24T14:48:31.988Z,4.37
2018-08-24T14:51:00.903Z,3.97
2018-08-24T14:53:28.252Z,4.07
2018-08-24T14:55:55.999Z,3.40
2018-08-24T14:58:23.263Z,4.70
2018-08-24T15:00:50.446Z,3.97
2018-08-24T15:03:17.982Z,4.40
2018-08-24T15:05:45.150Z,5.30
2018-08-24T15:08:12.578Z,4.57
2018-08-24T15:10:40.031Z,3.67
2018-08-24T15:13:08.534Z,4.60
2018-08-24T15:15:35.973Z,3.37
2018-08-24T15:18:03.452Z,3.40
2018-08-24T15:20:30.705Z,3.70
2018-08-24T15:22:58.230Z,4.20
2018-08-24T15:25:26.059Z,4.33
2018-08-24T15:27:54.722Z,6.07
2018-08-24T15:30:23.612Z,4.40
2018-08-24T15:32:52.273Z,3.77
2018-08-24T15:35:19.668Z,3.47
2018-08-24T15:37:47.211Z,3.23
2018-08-24T15:40:14.610Z,3.50
2018-08-24T15:42:41.830Z,3.43
2018-08-24T15:45:10.155Z,3.27
2018-08-24T15:47:38.127Z,2.60
2018-08-24T15:50:06.023Z,3.30
2018-08-24T15:52:34.045Z,3.50
2018-08-24T15:55:04.369Z,3.43
2018-08-24T15:57:31.746Z,4.03
2018-08-24T15:59:59.064Z,3.50
2018-08-24T16:02:26.327Z,3.73
2018-08-24T16:04:54.671Z,3.60
2018-08-24T16:07:21.922Z,3.30
2018-08-24T16:09:49.311Z,3.50
2018-08-24T16:12:17.431Z,3.83
2018-08-24T16:14:47.239Z,3.40
2018-08-24T16:17:14.511Z,3.73
2018-08-24T16:19:42.793Z,3.30
2018-08-24T16:22:10.430Z,3.73
2018-08-24T16:24:37.851Z,3.20
2018-08-24T16:27:07.539Z,4.00
2018-08-24T16:29:35.401Z,3.30
2018-08-24T16:32:02.674Z,3.53
2018-08-24T16:34:30.096Z,3.10
2018-08-24T16:36:57.402Z,3.70
2018-08-24T16:39:36.647Z,3.20
2018-08-24T16:42:04.057Z,2.83
2018-08-24T16:44:31.479Z,3.60
2018-08-24T16:46:59.991Z,3.10
2018-08-24T16:49:27.275Z,3.20
2018-08-24T16:51:55.638Z,3.30
2018-08-24T16:54:22.866Z,3.17
2018-08-24T16:56:50.186Z,2.80
2018-08-24T16:59:22.392Z,2.83
2018-08-24T17:01:54.467Z,3.23
2018-08-24T17:04:23.588Z,3.00
2018-08-24T17:09:36.182Z,2.93
2018-08-24T17:12:03.739Z,3.10
2018-08-24T17:14:31.051Z,3.37
2018-08-24T17:16:58.749Z,3.07
2018-08-24T17:19:26.174Z,2.90
2018-08-24T17:21:53.367Z,2.87
2018-08-24T17:24:20.943Z,3.30
2018-08-24T17:26:48.320Z,3.10
2018-08-24T17:29:15.689Z,3.13
2018-08-24T17:31:43.111Z,3.07
2018-08-24T17:34:10.320Z,2.80
2018-08-24T17:36:38.035Z,3.23
2018-08-24T17:39:07.561Z,3.20
2018-08-24T17:41:35.108Z,3.00
2018-08-24T17:44:02.479Z,2.90
2018-08-24T17:46:29.823Z,3.33
2018-08-24T17:48:57.113Z,2.60
2018-08-24T17:51:24.327Z,2.87
2018-08-24T17:53:51.727Z,3.37
2018-08-24T17:56:19.236Z,2.67
2018-08-24T17:58:46.726Z,3.00
2018-08-24T18:01:14.183Z,2.87
2018-08-24T18:03:41.922Z,3.10
2018-08-24T18:06:09.365Z,2.97
2018-08-24T18:08:36.822Z,2.90
2018-08-24T18:11:04.157Z,2.90
2018-08-24T18:13:31.413Z,2.30
2018-08-24T18:15:58.892Z,2.60
2018-08-24T18:18:26.198Z,2.70
2018-08-24T18:20:53.852Z,2.20
2018-08-24T18:23:21.436Z,2.20
2018-08-24T18:25:48.781Z,2.53
2018-08-24T18:28:16.228Z,2.10
2018-08-24T18:30:43.946Z,2.87
2018-08-24T18:33:11.962Z,2.53
2018-08-24T18:35:39.166Z,2.27
2018-08-24T18:38:06.675Z,2.60
2018-08-24T18:40:34.077Z,2.70
2018-08-24T18:43:01.847Z,2.80
2018-08-24T18:45:29.107Z,2.50
2018-08-24T18:47:57.314Z,3.20
2018-08-24T18:50:24.826Z,2.63
2018-08-24T18:52:52.170Z,2.87
2018-08-24T18:55:19.473Z,2.53
2018-08-24T18:57:46.697Z,2.37
2018-08-24T19:00:14.003Z,1.93
2018-08-24T19:02:41.251Z,2.40
2018-08-24T19:05:08.681Z,2.40
2018-08-24T19:07:35.976Z,2.50
2018-08-24T19:10:03.790Z,2.13
2018-08-24T19:12:31.574Z,2.13
2018-08-24T19:14:59.314Z,2.23
2018-08-24T19:17:32.275Z,2.30
2018-08-24T19:20:05.435Z,2.43
2018-08-24T19:22:32.931Z,2.07
2018-08-24T19:25:00.539Z,2.07
2018-08-24T19:27:33.127Z,1.80
2018-08-24T19:30:05.888Z,1.90
2018-08-24T19:32:33.349Z,2.40
2018-08-24T19:35:00.577Z,2.03
2018-08-24T19:37:28.115Z,2.10
2018-08-24T19:40:00.617Z,1.90
2018-08-24T19:42:27.892Z,2.10
2018-08-24T19:44:55.315Z,1.97
2018-08-24T19:47:28.056Z,1.90
2018-08-24T19:49:55.592Z,2.30
2018-08-24T19:52:23.275Z,2.03
2018-08-24T19:54:50.676Z,2.03
2018-08-24T19:57:23.322Z,1.40
2018-08-24T19:59:50.562Z,2.60
2018-08-24T20:02:17.897Z,1.90
2018-08-24T20:04:45.127Z,1.93
2018-08-24T20:07:17.952Z,2.30
2018-08-24T20:09:50.593Z,2.27
2018-08-24T20:12:17.819Z,2.10
2018-08-24T20:14:50.510Z,2.10
2018-08-24T20:17:23.103Z,2.10
2018-08-24T20:19:50.345Z,2.27
2018-08-24T20:22:17.604Z,2.10
2018-08-24T20:24:45.403Z,2.63
2018-08-24T20:27:12.718Z,1.90
2018-08-24T20:29:39.943Z,2.13
2018-08-24T20:32:07.258Z,1.90
2018-08-24T20:34:34.488Z,2.30
2018-08-24T20:37:01.751Z,1.80
2018-08-24T20:39:29.163Z,1.70
2018-08-24T20:41:56.534Z,2.17
2018-08-24T20:44:23.818Z,1.83
2018-08-24T20:46:51.096Z,2.00
2018-08-24T20:49:18.640Z,1.80
2018-08-24T20:51:45.877Z,2.30
2018-08-24T20:54:13.218Z,2.10
2018-08-24T20:56:40.469Z,2.30
2018-08-24T20:59:08.015Z,1.90
2018-08-24T21:01:35.413Z,1.93
2018-08-24T21:04:02.721Z,2.40
2018-08-24T21:06:30.209Z,2.10
2018-08-24T21:08:57.450Z,2.30
2018-08-24T21:11:24.645Z,1.50
2018-08-24T21:13:52.119Z,1.83
2018-08-24T21:16:19.380Z,1.97
2018-08-24T21:18:46.692Z,1.70
2018-08-24T21:21:13.959Z,2.13
2018-08-24T21:23:41.239Z,2.87
2018-08-24T21:26:08.428Z,1.97
2018-08-24T21:28:35.663Z,1.97
2018-08-24T21:31:03.039Z,4.73
2018-08-24T21:33:30.254Z,2.37
2018-08-24T21:35:57.598Z,1.70
2018-08-24T21:38:24.814Z,3.60
2018-08-24T21:40:52.029Z,2.10
2018-08-24T21:43:19.470Z,2.40
2018-08-24T21:45:46.686Z,1.97
2018-08-24T21:48:14.363Z,1.70
2018-08-24T21:50:41.859Z,1.90
2018-08-24T21:53:09.289Z,2.50
2018-08-24T21:55:36.776Z,2.00
2018-08-24T21:58:04.249Z,1.97
2018-08-24T22:00:35.777Z,1.90
2018-08-24T22:03:03.283Z,1.87
2018-08-24T22:05:30.732Z,2.30
2018-08-24T22:07:57.935Z,2.30
2018-08-24T22:10:25.254Z,2.53
2018-08-24T22:12:52.636Z,2.17
2018-08-24T22:15:20.045Z,1.90
2018-08-24T22:17:47.513Z,1.93
2018-08-24T22:20:14.900Z,2.10
2018-08-24T22:22:42.427Z,2.83
2018-08-24T22:25:16.262Z,2.20
2018-08-24T22:27:43.599Z,1.97
2018-08-24T22:30:10.869Z,2.00
2018-08-24T22:32:38.099Z,1.93
2018-08-24T22:35:05.279Z,2.03
2018-08-24T22:37:32.715Z,2.70
2018-08-24T22:39:59.982Z,1.90
2018-08-24T22:42:27.648Z,2.20
2018-08-24T22:44:54.839Z,3.07
2018-08-24T22:47:22.349Z,2.03
2018-08-24T22:49:49.594Z,2.27
2018-08-24T22:52:17.172Z,1.93
2018-08-24T22:54:44.625Z,1.80
2018-08-24T22:57:12.285Z,2.20
2018-08-24T22:59:39.952Z,2.63
2018-08-24T23:02:07.300Z,2.43
2018-08-24T23:04:34.515Z,2.03
2018-08-24T23:07:01.754Z,1.73
2018-08-24T23:09:29.406Z,2.20
2018-08-24T23:11:57.941Z,1.80
2018-08-24T23:14:25.671Z,2.27
2018-08-24T23:16:52.903Z,2.10
2018-08-24T23:19:20.115Z,2.10
2018-08-24T23:21:47.322Z,1.80
2018-08-24T23:24:14.738Z,2.03
2018-08-24T23:26:42.196Z,2.07
2018-08-24T23:29:09.635Z,1.90
2018-08-24T23:31:37.201Z,2.00
2018-08-24T23:34:04.800Z,1.70
2018-08-24T23:36:31.980Z,2.43
2018-08-24T23:38:59.250Z,1.50
2018-08-24T23:41:26.800Z,1.33
2018-08-24T23:43:54.035Z,2.10
2018-08-24T23:46:21.219Z,1.40
2018-08-24T23:48:48.684Z,8.13
2018-08-24T23:51:16.017Z,1.60
2018-08-24T23:53:43.381Z,1.70
2018-08-24T23:56:10.680Z,2.27
2018-08-24T23:58:37.998Z,4.40
